Time;durP1;ratioP1;P1;durP2;ratioP2;P2;SDS_P1;SDS_P2;PMS_P1;PMS_P2;Temp;Humidity;BMP_temperature;BMP_pressure;BME280_temperature;BME280_humidity;BME280_pressure;Samples;Min_cycle;Max_cycle;Signal;HPM_P1;HPM_P2
2020/12/14 08:27:58;;;;;;;3.13;0.53;;;10.50;99.90;;;;;;4433117;23;20268;-74
2020/12/14 08:30:26;;;;;;;1.10;0.50;;;10.60;99.90;;;;;;4956779;29;20682;-75
2020/12/14 08:33:12;;;;;;;1.00;0.60;;;10.60;99.90;;;;;;4956622;29;20219;-75
2020/12/14 08:35:40;;;;;;;2.20;0.40;;;10.60;99.90;;;;;;4954961;29;20323;-73
2020/12/14 08:38:08;;;;;;;2.10;0.47;;;10.60;99.90;;;;;;4955222;29;20204;-77
2020/12/14 08:40:36;;;;;;;0.60;0.43;;;10.60;99.90;;;;;;4955267;29;20215;-73
2020/12/14 08:43:10;;;;;;;1.00;0.40;;;10.70;99.90;;;;;;4955032;28;20238;-73
2020/12/14 08:45:39;;;;;;;0.50;0.30;;;10.70;99.90;;;;;;4954861;29;20223;-73
2020/12/14 08:48:05;;;;;;;0.30;0.30;;;10.70;99.90;;;;;;4955268;29;20667;-74
2020/12/14 08:50:31;;;;;;;0.53;0.30;;;10.70;99.90;;;;;;4954794;29;20219;-73
2020/12/14 08:53:01;;;;;;;0.43;0.30;;;10.70;99.90;;;;;;4954996;29;20219;-73
2020/12/14 08:55:38;;;;;;;0.77;0.63;;;10.70;99.90;;;;;;4954943;29;20231;-72
2020/12/14 08:58:04;;;;;;;0.70;0.40;;;10.70;99.90;;;;;;4955376;28;20212;-73
2020/12/14 09:00:31;;;;;;;0.53;0.50;;;10.80;99.90;;;;;;4958400;29;20204;-73
2020/12/14 09:03:00;;;;;;;0.80;0.40;;;10.70;99.90;;;;;;4958621;29;20263;-74
2020/12/14 09:05:26;;;;;;;3.50;0.70;;;10.80;99.90;;;;;;4958487;29;20228;-74
2020/12/14 09:07:52;;;;;;;0.40;0.37;;;10.80;99.90;;;;;;4958499;29;20688;-75
2020/12/14 09:10:22;;;;;;;0.80;0.50;;;10.80;99.90;;;;;;4958301;29;20263;-73
2020/12/14 09:12:49;;;;;;;0.93;0.50;;;10.80;99.90;;;;;;4958397;29;20263;-75
2020/12/14 09:15:15;;;;;;;0.90;0.57;;;10.70;99.90;;;;;;4958229;29;20232;-75
2020/12/14 09:17:45;;;;;;;1.43;0.47;;;10.70;99.90;;;;;;4957872;29;20216;-73
2020/12/14 09:20:11;;;;;;;0.50;0.30;;;10.70;99.90;;;;;;4957771;28;20211;-74
2020/12/14 09:22:37;;;;;;;0.93;0.50;;;10.70;99.90;;;;;;4957817;29;20246;-74
2020/12/14 09:25:05;;;;;;;1.10;0.67;;;10.70;99.90;;;;;;4957660;29;21385;-76
2020/12/14 09:27:32;;;;;;;1.77;0.60;;;10.70;99.90;;;;;;4957699;29;20210;-76
2020/12/14 09:29:58;;;;;;;1.03;0.50;;;10.70;99.90;;;;;;4957704;29;20220;-74
2020/12/14 09:32:25;;;;;;;0.63;0.47;;;10.70;99.90;;;;;;4957802;29;20215;-74
2020/12/14 09:34:52;;;;;;;0.50;0.40;;;10.70;99.90;;;;;;4957911;29;20240;-75
2020/12/14 09:37:18;;;;;;;0.90;0.50;;;10.70;99.90;;;;;;4943542;29;20212;-74
2020/12/14 09:39:45;;;;;;;1.07;0.80;;;10.60;99.90;;;;;;4955937;29;20216;-80
2020/12/14 09:42:11;;;;;;;1.30;0.70;;;10.60;99.90;;;;;;4956240;29;20235;-77
2020/12/14 09:44:38;;;;;;;3.37;0.73;;;10.70;99.90;;;;;;4955478;29;20231;-76
2020/12/14 09:47:05;;;;;;;0.90;0.40;;;10.70;99.90;;;;;;4955914;29;20690;-75
2020/12/14 09:49:32;;;;;;;1.43;0.60;;;10.80;99.90;;;;;;4956658;28;20259;-80
2020/12/14 09:51:59;;;;;;;1.63;0.60;;;10.80;99.90;;;;;;4956485;28;20602;-81
2020/12/14 09:54:25;;;;;;;2.60;0.60;;;10.80;99.90;;;;;;4958050;28;20232;-81
2020/12/14 09:56:51;;;;;;;1.73;0.73;;;10.90;99.90;;;;;;4943953;29;20216;-77
2020/12/14 09:59:17;;;;;;;1.00;0.50;;;10.90;99.90;;;;;;4938170;29;20215;-79
2020/12/14 10:01:44;;;;;;;1.43;0.70;;;10.90;99.90;;;;;;4934475;29;20240;-72
2020/12/14 10:04:10;;;;;;;2.60;0.60;;;10.90;99.90;;;;;;4947259;29;20235;-73
2020/12/14 10:06:37;;;;;;;1.90;0.53;;;10.90;99.90;;;;;;4949398;29;20263;-80
2020/12/14 10:09:04;;;;;;;1.80;0.70;;;10.90;99.90;;;;;;4944368;29;20258;-78
2020/12/14 10:11:33;;;;;;;0.90;0.60;;;11.00;99.90;;;;;;4948835;29;20563;-78
2020/12/14 10:14:00;;;;;;;2.10;0.83;;;11.00;99.90;;;;;;4954801;29;20219;-75
2020/12/14 10:16:26;;;;;;;1.53;0.70;;;11.00;99.90;;;;;;4946007;29;20585;-76
2020/12/14 10:18:52;;;;;;;0.70;0.50;;;11.10;99.90;;;;;;4936620;29;20272;-74
2020/12/14 10:21:18;;;;;;;0.57;0.40;;;11.10;99.90;;;;;;4936360;29;20239;-75
2020/12/14 10:23:45;;;;;;;1.33;0.90;;;11.10;99.90;;;;;;4936152;29;20216;-78
2020/12/14 10:26:13;;;;;;;0.53;0.40;;;11.10;99.90;;;;;;4936259;29;20283;-81
2020/12/14 10:28:40;;;;;;;1.00;0.57;;;11.10;99.90;;;;;;4936224;29;20695;-77
2020/12/14 10:31:06;;;;;;;1.57;0.70;;;11.00;99.90;;;;;;4950129;29;20223;-76
2020/12/14 10:33:32;;;;;;;2.20;0.97;;;11.00;99.90;;;;;;4955436;29;20200;-77
2020/12/14 10:36:06;;;;;;;1.10;0.70;;;11.00;99.90;;;;;;4949393;29;20311;-75
2020/12/14 10:38:32;;;;;;;1.87;0.70;;;11.00;99.90;;;;;;4935717;29;20209;-76
2020/12/14 10:40:58;;;;;;;0.77;0.53;;;11.00;99.90;;;;;;4935958;29;20209;-77
2020/12/14 10:43:26;;;;;;;1.10;0.50;;;11.00;99.90;;;;;;4940402;29;20599;-77
2020/12/14 10:45:52;;;;;;;2.10;0.70;;;11.10;99.90;;;;;;4948768;29;20224;-82
2020/12/14 10:48:18;;;;;;;1.30;0.53;;;11.30;99.90;;;;;;4951465;29;20224;-73
2020/12/14 10:50:45;;;;;;;0.97;0.77;;;11.30;99.90;;;;;;4939933;29;20215;-73
2020/12/14 10:53:11;;;;;;;1.70;0.50;;;11.30;99.90;;;;;;4944035;29;20219;-77
2020/12/14 10:55:37;;;;;;;1.37;0.60;;;11.30;99.90;;;;;;4952292;29;20233;-74
2020/12/14 10:58:03;;;;;;;1.63;0.60;;;11.30;99.90;;;;;;4935708;29;20685;-77
2020/12/14 11:00:30;;;;;;;1.70;0.83;;;11.40;99.90;;;;;;4935302;29;20213;-74
2020/12/14 11:02:59;;;;;;;1.50;0.50;;;11.60;99.90;;;;;;4935585;29;20318;-74
2020/12/14 11:05:25;;;;;;;0.60;0.50;;;11.60;99.90;;;;;;4934991;29;20664;-78
2020/12/14 11:07:53;;;;;;;2.73;0.77;;;11.70;99.90;;;;;;4935170;29;20209;-74
2020/12/14 11:10:20;;;;;;;1.10;0.60;;;11.70;99.90;;;;;;4935275;29;20580;-73
2020/12/14 11:12:46;;;;;;;1.13;0.67;;;11.70;99.90;;;;;;4936912;29;20228;-80
2020/12/14 11:15:12;;;;;;;1.23;0.60;;;11.80;99.90;;;;;;4935860;29;20244;-74
2020/12/14 11:17:39;;;;;;;1.47;0.90;;;11.70;99.90;;;;;;4937087;29;20224;-74
2020/12/14 11:20:09;;;;;;;3.10;0.70;;;11.70;99.90;;;;;;4944819;29;20571;-74
2020/12/14 11:22:36;;;;;;;1.30;0.63;;;11.80;99.90;;;;;;4955348;28;20646;-74
2020/12/14 11:25:04;;;;;;;3.00;0.70;;;11.90;99.90;;;;;;4946665;29;20237;-73
2020/12/14 11:27:30;;;;;;;4.10;1.23;;;11.90;99.90;;;;;;4954939;29;20212;-75
2020/12/14 11:29:56;;;;;;;1.00;0.80;;;12.00;99.90;;;;;;4941316;29;20293;-74
2020/12/14 11:32:23;;;;;;;1.77;0.57;;;12.10;99.90;;;;;;4955528;29;20216;-72
2020/12/14 11:34:50;;;;;;;3.83;0.80;;;12.30;99.90;;;;;;4955113;29;20266;-74
2020/12/14 11:37:17;;;;;;;0.97;0.40;;;12.50;99.90;;;;;;4956025;29;20208;-75
2020/12/14 11:39:44;;;;;;;1.07;0.70;;;12.40;99.90;;;;;;4948988;29;20215;-73
2020/12/14 11:42:10;;;;;;;1.60;0.70;;;12.50;99.90;;;;;;4935917;29;20245;-78
2020/12/14 11:44:36;;;;;;;1.60;0.73;;;12.60;99.90;;;;;;4936381;29;20271;-77
2020/12/14 11:47:03;;;;;;;1.77;1.07;;;12.70;99.90;;;;;;4936560;29;20216;-77
2020/12/14 11:49:29;;;;;;;2.03;0.70;;;12.70;99.90;;;;;;4938370;29;20220;-77
2020/12/14 11:51:56;;;;;;;1.17;0.70;;;12.50;99.90;;;;;;4938426;29;20220;-78
2020/12/14 11:54:22;;;;;;;3.33;0.70;;;12.60;99.90;;;;;;4938129;29;20252;-78
2020/12/14 11:56:48;;;;;;;1.33;0.70;;;12.70;99.90;;;;;;4938838;29;20204;-78
2020/12/14 11:59:15;;;;;;;1.57;0.60;;;12.60;99.90;;;;;;4938278;29;20322;-78
2020/12/14 12:01:41;;;;;;;1.77;0.80;;;12.70;99.90;;;;;;4938331;29;20236;-78
2020/12/14 12:04:08;;;;;;;2.77;0.60;;;12.60;99.90;;;;;;4938017;29;20664;-78
2020/12/14 12:06:34;;;;;;;1.03;0.57;;;12.50;99.90;;;;;;4937927;29;20208;-78
2020/12/14 12:09:01;;;;;;;1.17;0.77;;;12.60;99.90;;;;;;4938347;29;20680;-77
2020/12/14 12:11:28;;;;;;;1.43;0.63;;;12.60;99.90;;;;;;4939632;29;20283;-77
2020/12/14 12:13:54;;;;;;;2.40;0.57;;;12.60;99.90;;;;;;4939239;29;20216;-77
2020/12/14 12:16:20;;;;;;;2.43;1.00;;;12.50;99.90;;;;;;4938422;29;20220;-77
2020/12/14 12:18:50;;;;;;;1.07;0.60;;;12.50;99.90;;;;;;4938353;29;20675;-78
2020/12/14 12:21:17;;;;;;;3.10;0.70;;;12.40;99.90;;;;;;4935955;29;20667;-78
2020/12/14 12:23:43;;;;;;;1.90;0.50;;;12.40;99.90;;;;;;4935974;29;20209;-78
2020/12/14 12:26:11;;;;;;;2.60;0.70;;;12.20;99.90;;;;;;4937132;29;20726;-78
2020/12/14 12:28:37;;;;;;;0.70;0.50;;;12.10;99.90;;;;;;4937827;29;20227;-79
2020/12/14 12:31:03;;;;;;;3.33;0.80;;;12.10;99.90;;;;;;4936675;29;20212;-79
2020/12/14 12:33:29;;;;;;;4.13;0.63;;;11.90;99.90;;;;;;4935739;29;20608;-78
2020/12/14 12:35:57;;;;;;;3.27;0.70;;;11.90;99.90;;;;;;4936563;29;20314;-78
2020/12/14 12:38:23;;;;;;;1.63;0.77;;;11.90;99.90;;;;;;4936520;29;20722;-78
2020/12/14 12:40:49;;;;;;;1.23;0.60;;;12.00;99.90;;;;;;4936886;29;20208;-78
2020/12/14 12:43:16;;;;;;;0.90;0.70;;;12.10;99.90;;;;;;4936590;29;20248;-79
2020/12/14 12:45:43;;;;;;;1.90;0.70;;;12.00;99.90;;;;;;4935483;29;20738;-74
2020/12/14 12:48:09;;;;;;;1.13;0.60;;;12.10;99.90;;;;;;4943075;29;20664;-73
2020/12/14 12:50:52;;;;;;;1.90;0.97;;;12.10;99.90;;;;;;4945521;29;20215;-74
2020/12/14 12:53:19;;;;;;;1.33;0.90;;;12.30;99.90;;;;;;4943056;29;20655;-74
2020/12/14 12:55:45;;;;;;;2.33;0.97;;;12.30;99.90;;;;;;4938374;29;20232;-75
2020/12/14 12:58:12;;;;;;;3.27;0.70;;;12.10;99.90;;;;;;4942093;29;20205;-72
2020/12/14 13:00:39;;;;;;;1.33;0.60;;;12.10;99.90;;;;;;4944158;29;20208;-69
2020/12/14 13:03:05;;;;;;;0.90;0.70;;;12.00;99.90;;;;;;4936485;29;20236;-69
2020/12/14 13:05:31;;;;;;;1.40;0.63;;;12.10;99.90;;;;;;4948759;29;20765;-70
2020/12/14 13:07:57;;;;;;;2.53;0.70;;;12.10;99.90;;;;;;4932946;29;20205;-70
2020/12/14 13:10:24;;;;;;;1.83;0.70;;;12.00;99.90;;;;;;4933122;29;20220;-73
2020/12/14 13:12:50;;;;;;;1.53;0.57;;;11.90;99.90;;;;;;4933240;29;20300;-72
2020/12/14 13:15:16;;;;;;;0.73;0.50;;;11.80;99.90;;;;;;4933540;29;20232;-72
2020/12/14 13:17:43;;;;;;;0.90;0.60;;;11.70;99.90;;;;;;4933033;29;20213;-73
2020/12/14 13:20:09;;;;;;;0.70;0.50;;;11.70;99.90;;;;;;4933325;29;20576;-76
2020/12/14 13:22:35;;;;;;;0.87;0.50;;;11.70;99.90;;;;;;4933974;29;20237;-73
2020/12/14 13:25:03;;;;;;;1.60;0.80;;;11.70;99.90;;;;;;4933744;29;20239;-72
2020/12/14 13:27:30;;;;;;;2.00;0.70;;;11.70;99.90;;;;;;4930974;29;20209;-70
2020/12/14 13:29:56;;;;;;;1.40;0.60;;;11.60;99.90;;;;;;4944621;29;20220;-70
2020/12/14 13:32:22;;;;;;;1.00;0.50;;;11.60;99.90;;;;;;4953104;29;20208;-78
2020/12/14 13:34:49;;;;;;;1.67;0.50;;;11.70;99.90;;;;;;4942333;29;20647;-82
2020/12/14 13:37:15;;;;;;;2.47;0.73;;;11.80;99.90;;;;;;4953861;29;20219;-80
2020/12/14 13:39:42;;;;;;;2.97;0.73;;;11.80;99.90;;;;;;4953727;29;20275;-81
2020/12/14 13:42:08;;;;;;;1.83;1.53;;;11.70;99.90;;;;;;4953673;29;20232;-77
2020/12/14 13:44:34;;;;;;;1.03;0.60;;;11.60;99.90;;;;;;4953660;28;20232;-80
2020/12/14 13:47:02;;;;;;;1.70;0.80;;;11.60;99.90;;;;;;4938892;29;20205;-78
2020/12/14 13:49:28;;;;;;;2.60;0.63;;;11.50;99.90;;;;;;4938654;29;20209;-81
2020/12/14 13:51:57;;;;;;;2.63;1.37;;;11.60;99.90;;;;;;4938361;29;20223;-80
2020/12/14 13:54:23;;;;;;;1.57;0.77;;;11.60;99.90;;;;;;4938058;29;20240;-80
2020/12/14 13:56:50;;;;;;;1.30;0.60;;;11.70;99.90;;;;;;4938401;29;20213;-80
2020/12/14 13:59:16;;;;;;;1.17;0.60;;;11.50;99.90;;;;;;4938707;29;20208;-77
2020/12/14 14:01:42;;;;;;;3.27;0.80;;;11.50;99.90;;;;;;4937841;29;20236;-81
2020/12/14 14:04:08;;;;;;;3.00;1.20;;;11.40;99.90;;;;;;4937753;29;20568;-80
2020/12/14 14:06:34;;;;;;;1.47;1.03;;;11.40;99.90;;;;;;4937715;29;20213;-79
2020/12/14 14:09:01;;;;;;;2.30;0.90;;;11.40;99.90;;;;;;4938982;29;20213;-77
2020/12/14 14:11:28;;;;;;;1.27;0.73;;;11.30;99.90;;;;;;4938562;29;20205;-82
2020/12/14 14:13:54;;;;;;;2.90;0.90;;;11.20;99.90;;;;;;4937310;29;20244;-79
2020/12/14 14:16:20;;;;;;;2.40;0.70;;;11.20;99.90;;;;;;4937514;29;20220;-79
2020/12/14 14:18:47;;;;;;;2.70;0.80;;;11.10;99.90;;;;;;4938080;29;20209;-81
2020/12/14 14:21:15;;;;;;;1.97;0.70;;;11.10;99.90;;;;;;4938680;29;20213;-80
2020/12/14 14:23:42;;;;;;;1.97;0.67;;;11.00;99.90;;;;;;4938665;29;20240;-81
2020/12/14 14:26:09;;;;;;;1.40;0.70;;;11.00;99.90;;;;;;4936865;29;20256;-80
2020/12/14 14:28:35;;;;;;;2.53;0.73;;;10.90;99.90;;;;;;4937540;29;20221;-80
2020/12/14 14:31:02;;;;;;;2.23;0.67;;;10.90;99.90;;;;;;4937676;29;20213;-79
2020/12/14 14:33:28;;;;;;;1.13;0.60;;;11.00;99.90;;;;;;4937400;29;20684;-78
2020/12/14 14:35:54;;;;;;;2.40;0.90;;;11.00;99.90;;;;;;4937502;29;20236;-80
2020/12/14 14:38:20;;;;;;;2.20;0.80;;;11.00;99.90;;;;;;4937303;29;20212;-79
2020/12/14 14:40:47;;;;;;;2.53;0.70;;;11.00;99.90;;;;;;4937825;29;20244;-81
2020/12/14 14:43:14;;;;;;;1.40;0.70;;;11.00;99.90;;;;;;4938404;29;20242;-80
2020/12/14 14:45:41;;;;;;;0.77;0.67;;;11.00;99.90;;;;;;4937599;29;20233;-79
2020/12/14 14:48:07;;;;;;;2.70;0.70;;;10.90;99.90;;;;;;4938439;29;20683;-80
2020/12/14 14:50:33;;;;;;;1.63;0.70;;;10.90;99.90;;;;;;4937097;29;20303;-80
2020/12/14 14:52:59;;;;;;;2.37;0.97;;;10.90;99.90;;;;;;4937964;29;20209;-80
2020/12/14 14:55:26;;;;;;;2.33;1.00;;;10.90;99.90;;;;;;4937648;29;20232;-80
2020/12/14 14:57:52;;;;;;;2.10;0.83;;;10.80;99.90;;;;;;4937561;29;20204;-79
2020/12/14 15:00:19;;;;;;;1.47;0.93;;;10.90;99.90;;;;;;4937486;29;20220;-79
2020/12/14 15:02:45;;;;;;;1.80;1.13;;;11.00;99.90;;;;;;4939112;29;20236;-77
2020/12/14 15:05:11;;;;;;;1.90;0.90;;;10.90;99.90;;;;;;4941265;29;20235;-80
2020/12/14 15:07:37;;;;;;;2.03;1.10;;;10.90;99.90;;;;;;4940128;29;20572;-79
2020/12/14 15:10:04;;;;;;;1.80;0.80;;;10.90;99.90;;;;;;4939030;29;20750;-80
2020/12/14 15:12:30;;;;;;;1.60;1.10;;;10.90;99.90;;;;;;4940366;29;20204;-79
2020/12/14 15:14:56;;;;;;;2.63;1.10;;;10.90;99.90;;;;;;4938528;29;20236;-78
2020/12/14 15:17:23;;;;;;;3.23;1.40;;;10.90;99.90;;;;;;4938415;29;20209;-79
2020/12/14 15:19:49;;;;;;;3.67;1.10;;;10.90;99.90;;;;;;4936402;29;20220;-78
2020/12/14 15:22:16;;;;;;;4.33;0.90;;;10.90;99.90;;;;;;4936660;29;20241;-79
2020/12/14 15:24:42;;;;;;;3.03;0.90;;;11.00;99.90;;;;;;4936558;29;20239;-79
2020/12/14 15:27:08;;;;;;;2.77;1.03;;;11.10;99.90;;;;;;4935926;29;20216;-78
2020/12/14 15:29:34;;;;;;;2.10;1.10;;;11.00;99.90;;;;;;4935788;29;20225;-79
2020/12/14 15:32:00;;;;;;;1.93;0.80;;;10.90;99.90;;;;;;4936251;29;20216;-79
2020/12/14 15:34:27;;;;;;;1.23;0.87;;;11.00;99.90;;;;;;4935897;29;20721;-78
2020/12/14 15:36:54;;;;;;;6.33;1.20;;;11.10;99.90;;;;;;4936378;29;20718;-79
2020/12/14 15:39:20;;;;;;;4.80;1.30;;;11.00;99.90;;;;;;4936445;29;20208;-79
2020/12/14 15:41:47;;;;;;;4.40;1.20;;;11.00;99.90;;;;;;4937487;29;20209;-82
2020/12/14 15:44:14;;;;;;;2.73;1.13;;;10.90;99.90;;;;;;4936107;29;20235;-79
2020/12/14 15:46:40;;;;;;;1.83;0.97;;;10.80;99.90;;;;;;4935772;29;20205;-79
2020/12/14 15:49:06;;;;;;;3.77;1.20;;;10.80;99.90;;;;;;4935564;29;20222;-78
2020/12/14 15:51:35;;;;;;;3.67;1.20;;;10.70;99.90;;;;;;4935845;29;20205;-78
2020/12/14 15:54:01;;;;;;;2.60;0.97;;;10.60;99.90;;;;;;4935749;29;20212;-80
2020/12/14 15:56:27;;;;;;;1.87;1.00;;;10.50;99.90;;;;;;4936091;29;20205;-79
2020/12/14 15:58:54;;;;;;;1.37;0.80;;;10.50;99.90;;;;;;4936364;29;20576;-79
2020/12/14 16:01:20;;;;;;;2.50;1.03;;;10.60;99.90;;;;;;4935535;29;20675;-78
2020/12/14 16:03:48;;;;;;;4.57;0.90;;;10.60;99.90;;;;;;4935326;29;20241;-78
2020/12/14 16:06:16;;;;;;;1.47;0.67;;;10.60;99.90;;;;;;4935698;29;20731;-77
2020/12/14 16:08:43;;;;;;;4.10;1.23;;;10.60;99.90;;;;;;4936272;29;20287;-76
2020/12/14 16:11:09;;;;;;;1.50;0.90;;;10.70;99.90;;;;;;4935457;29;20572;-78
2020/12/14 16:13:36;;;;;;;2.83;1.03;;;10.80;99.90;;;;;;4936007;29;20220;-77
2020/12/14 16:16:03;;;;;;;2.07;0.77;;;10.80;99.90;;;;;;4935044;29;20581;-79
2020/12/14 16:18:30;;;;;;;1.40;0.67;;;10.90;99.90;;;;;;4935628;29;20220;-79
2020/12/14 16:20:56;;;;;;;3.57;1.00;;;10.90;99.90;;;;;;4935888;29;20208;-80
2020/12/14 16:23:23;;;;;;;1.37;0.90;;;10.90;99.90;;;;;;4935786;29;20249;-79
2020/12/14 16:25:51;;;;;;;1.93;0.80;;;10.90;99.90;;;;;;4935447;29;20743;-82
2020/12/14 16:28:17;;;;;;;2.67;0.87;;;10.90;99.90;;;;;;4935036;29;20256;-75
2020/12/14 16:30:43;;;;;;;1.77;1.00;;;11.00;99.90;;;;;;4937592;29;20216;-80
2020/12/14 16:33:09;;;;;;;1.30;0.80;;;10.90;99.90;;;;;;4955510;29;20659;-82
2020/12/14 16:35:35;;;;;;;2.53;1.03;;;10.90;99.90;;;;;;4954734;29;20227;-83
2020/12/14 16:38:02;;;;;;;1.40;0.73;;;11.00;99.90;;;;;;4955651;29;20212;-83
2020/12/14 16:40:29;;;;;;;1.53;0.87;;;11.00;99.90;;;;;;4955880;29;20244;-78
2020/12/14 16:42:56;;;;;;;2.50;1.10;;;11.00;99.90;;;;;;4955397;29;20228;-79
2020/12/14 16:45:22;;;;;;;3.13;0.90;;;11.00;99.90;;;;;;4946781;29;20225;-81
2020/12/14 16:47:48;;;;;;;3.30;0.93;;;11.00;99.90;;;;;;4936730;29;20204;-79
2020/12/14 16:50:14;;;;;;;2.80;0.97;;;10.90;99.90;;;;;;4937482;29;20232;-83
2020/12/14 16:52:41;;;;;;;4.67;1.10;;;11.00;99.90;;;;;;4935545;29;20205;-83
2020/12/14 16:55:07;;;;;;;3.17;1.30;;;11.00;99.90;;;;;;4935992;29;20252;-81
2020/12/14 16:57:33;;;;;;;2.83;1.00;;;10.90;99.90;;;;;;4935728;29;20234;-82
2020/12/14 17:00:01;;;;;;;1.43;0.90;;;10.90;99.90;;;;;;4935758;29;20209;-83
2020/12/14 17:02:28;;;;;;;3.10;1.10;;;11.00;99.90;;;;;;4935955;29;20229;-82
2020/12/14 17:04:58;;;;;;;1.93;1.03;;;11.00;99.90;;;;;;4935326;29;20228;-78
2020/12/14 17:07:27;;;;;;;1.90;1.33;;;11.00;99.90;;;;;;4935448;29;20311;-81
2020/12/14 17:09:53;;;;;;;2.17;1.60;;;11.00;99.90;;;;;;4935491;29;20205;-83
2020/12/14 17:12:19;;;;;;;3.93;1.40;;;11.00;99.90;;;;;;4935510;29;20220;-82
2020/12/14 17:14:48;;;;;;;4.57;1.53;;;10.90;99.90;;;;;;4935236;29;20224;-75
2020/12/14 17:17:15;;;;;;;3.80;1.10;;;11.00;99.90;;;;;;4935719;29;20243;-80
2020/12/14 17:19:42;;;;;;;3.73;1.00;;;10.90;99.90;;;;;;4936768;29;20212;-74
2020/12/14 17:22:14;;;;;;;3.50;0.87;;;10.90;99.90;;;;;;4940703;29;20209;-82
2020/12/14 17:24:40;;;;;;;1.17;0.90;;;10.90;99.90;;;;;;4938811;29;20229;-80
2020/12/14 17:27:06;;;;;;;2.07;1.10;;;10.90;99.90;;;;;;4940089;29;20549;-81
2020/12/14 17:29:33;;;;;;;3.30;1.50;;;10.90;99.90;;;;;;4938933;29;20221;-77
2020/12/14 17:32:00;;;;;;;2.60;1.20;;;10.90;99.90;;;;;;4939341;29;20204;-80
2020/12/14 17:34:32;;;;;;;2.20;1.00;;;10.90;99.90;;;;;;4939280;29;20239;-80
2020/12/14 17:36:58;;;;;;;1.43;0.80;;;10.90;99.90;;;;;;4939727;29;20205;-82
2020/12/14 17:39:24;;;;;;;3.83;1.30;;;10.90;99.90;;;;;;4940935;29;20220;-75
2020/12/14 17:41:53;;;;;;;2.70;1.10;;;10.90;99.90;;;;;;4939286;29;20213;-79
2020/12/14 17:44:19;;;;;;;2.63;1.20;;;10.90;99.90;;;;;;4938829;29;20240;-81
2020/12/14 17:46:46;;;;;;;4.10;1.10;;;10.90;99.90;;;;;;4938683;29;20208;-82
2020/12/14 17:49:13;;;;;;;3.50;1.50;;;10.80;99.90;;;;;;4938639;29;20591;-82
2020/12/14 17:51:40;;;;;;;3.33;1.23;;;10.80;99.90;;;;;;4938607;29;20216;-80
2020/12/14 17:54:06;;;;;;;4.50;1.40;;;10.90;99.90;;;;;;4938189;29;20219;-83
2020/12/14 17:56:33;;;;;;;2.37;1.23;;;10.90;99.90;;;;;;4938616;29;20213;-81
2020/12/14 17:59:00;;;;;;;3.77;1.20;;;11.00;99.90;;;;;;4938416;29;20668;-81
2020/12/14 18:01:26;;;;;;;2.93;1.17;;;10.80;99.90;;;;;;4940339;29;20217;-79
2020/12/14 18:03:53;;;;;;;1.90;1.10;;;10.80;99.90;;;;;;4939328;29;20244;-78
2020/12/14 18:06:23;;;;;;;4.07;1.60;;;10.90;99.90;;;;;;4937890;29;20564;-80
2020/12/14 18:08:50;;;;;;;3.10;1.50;;;10.90;99.90;;;;;;4938826;29;20653;-83
2020/12/14 18:11:16;;;;;;;3.63;1.30;;;10.90;99.90;;;;;;4939487;29;20287;-79
2020/12/14 18:13:43;;;;;;;4.40;1.50;;;10.90;99.90;;;;;;4939172;29;20564;-82
2020/12/14 18:16:09;;;;;;;2.00;1.30;;;10.80;99.90;;;;;;4939061;29;20233;-81
2020/12/14 18:18:35;;;;;;;2.87;1.60;;;10.80;99.90;;;;;;4939319;29;20213;-81
2020/12/14 18:21:01;;;;;;;5.63;1.40;;;10.80;99.90;;;;;;4938386;29;20552;-75
2020/12/14 18:23:28;;;;;;;3.47;1.33;;;10.80;99.90;;;;;;4938372;29;20240;-80
2020/12/14 18:25:55;;;;;;;4.43;1.60;;;10.80;99.90;;;;;;4937947;29;20233;-76
2020/12/14 18:28:21;;;;;;;1.80;1.30;;;10.80;99.90;;;;;;4938022;29;20239;-78
2020/12/14 18:30:53;;;;;;;2.80;1.40;;;10.90;99.90;;;;;;4938956;29;20213;-79
2020/12/14 21:23:42;;;;;;;3.30;1.73;;;10.90;99.90;;;;;;4940248;29;20626;-80
2020/12/14 21:26:09;;;;;;;2.57;1.50;;;10.80;99.90;;;;;;4940276;29;20235;-75
2020/12/14 21:28:36;;;;;;;2.50;1.47;;;10.90;99.90;;;;;;4939911;29;20221;-75
2020/12/14 21:31:03;;;;;;;5.63;1.47;;;10.80;99.90;;;;;;4943522;29;20208;-79
2020/12/14 21:33:29;;;;;;;3.03;1.33;;;10.80;99.90;;;;;;4946120;29;20668;-77
2020/12/14 21:35:55;;;;;;;3.23;1.47;;;10.90;99.90;;;;;;4948189;29;20264;-79
2020/12/14 21:38:21;;;;;;;1.80;1.13;;;10.90;99.90;;;;;;4946364;29;20205;-79
2020/12/14 21:40:47;;;;;;;3.17;1.50;;;10.90;99.90;;;;;;4947819;29;20208;-79
2020/12/14 21:43:13;;;;;;;3.50;1.40;;;10.90;99.90;;;;;;4946624;29;20240;-79
2020/12/14 21:45:40;;;;;;;3.57;1.40;;;10.90;99.90;;;;;;4944784;29;20233;-78
2020/12/14 21:48:07;;;;;;;2.63;1.53;;;10.90;99.90;;;;;;4939217;29;20561;-81
2020/12/14 21:50:33;;;;;;;2.33;1.33;;;10.80;99.90;;;;;;4939097;29;20205;-80
2020/12/14 21:52:59;;;;;;;3.80;1.20;;;10.80;99.90;;;;;;4939893;29;20217;-77
2020/12/14 21:55:26;;;;;;;3.67;1.47;;;10.80;99.90;;;;;;4939797;29;20228;-81
2020/12/14 21:57:52;;;;;;;1.97;1.37;;;10.90;99.90;;;;;;4939140;29;20295;-80
2020/12/14 22:00:18;;;;;;;4.77;1.67;;;10.90;99.90;;;;;;4938808;29;20209;-81
2020/12/14 22:02:44;;;;;;;1.97;1.30;;;10.90;99.90;;;;;;4940502;29;20236;-77
2020/12/14 22:05:12;;;;;;;3.73;1.30;;;10.80;99.90;;;;;;4939486;29;20240;-80
2020/12/14 22:07:38;;;;;;;5.63;1.70;;;10.80;99.90;;;;;;4938446;29;20216;-80
2020/12/14 22:10:05;;;;;;;2.03;1.37;;;10.80;99.90;;;;;;4938672;29;20209;-81
2020/12/14 22:12:31;;;;;;;2.53;1.13;;;10.90;99.90;;;;;;4939031;29;20205;-77
2020/12/14 22:14:57;;;;;;;2.63;1.20;;;10.80;99.90;;;;;;4936831;29;20233;-81
2020/12/14 22:17:24;;;;;;;2.53;1.30;;;10.90;99.90;;;;;;4939872;29;20216;-81
2020/12/14 22:19:50;;;;;;;2.00;1.43;;;10.90;99.90;;;;;;4940481;29;20213;-81
2020/12/14 22:22:17;;;;;;;2.97;1.40;;;10.90;99.90;;;;;;4939618;29;20212;-81
2020/12/14 22:24:43;;;;;;;1.90;1.13;;;10.90;99.90;;;;;;4938723;29;20233;-78
2020/12/14 22:27:09;;;;;;;2.53;1.40;;;10.80;99.90;;;;;;4938469;29;20666;-77
2020/12/14 22:29:36;;;;;;;5.50;1.50;;;10.80;99.90;;;;;;4939682;29;20221;-80
2020/12/14 22:32:02;;;;;;;3.00;1.40;;;10.80;99.90;;;;;;4939202;29;20247;-81
2020/12/14 22:34:28;;;;;;;3.27;1.53;;;10.90;99.90;;;;;;4938065;29;20233;-81
2020/12/14 22:36:54;;;;;;;4.27;1.33;;;10.90;99.90;;;;;;4938231;29;20209;-77
2020/12/14 22:39:21;;;;;;;2.40;1.10;;;10.90;99.90;;;;;;4938055;29;20213;-78
2020/12/14 22:41:47;;;;;;;3.07;1.60;;;11.00;99.90;;;;;;4938274;29;20215;-77
2020/12/14 22:44:15;;;;;;;3.73;1.27;;;10.90;99.90;;;;;;4938653;29;20240;-79
2020/12/14 22:46:41;;;;;;;3.17;1.30;;;10.80;99.90;;;;;;4938355;29;20217;-78
2020/12/14 22:49:07;;;;;;;2.30;1.20;;;10.70;99.90;;;;;;4938304;29;20568;-80
2020/12/14 22:51:34;;;;;;;2.97;1.23;;;10.70;99.90;;;;;;4938657;29;20244;-78
2020/12/14 22:54:00;;;;;;;1.97;1.10;;;10.60;99.90;;;;;;4938166;29;20219;-81
2020/12/14 22:56:27;;;;;;;1.70;1.00;;;10.50;99.90;;;;;;4937959;29;20232;-77
